Time;durP1;ratioP1;P1;durP2;ratioP2;P2;SDS_P1;SDS_P2;PMS_P1;PMS_P2;Temp;Humidity;BMP_temperature;BMP_pressure;BME280_temperature;BME280_humidity;BME280_pressure;Samples;Min_cycle;Max_cycle;Signal;HPM_P1;HPM_P2
2022/11/29 00:01:01;;;;;;;61.73;29.50;;;3.40;90.60;;;;;;5015702;28;20445;-63
2022/11/29 00:03:28;;;;;;;70.87;30.77;;;3.40;90.40;;;;;;5009525;28;20249;-63
2022/11/29 00:05:54;;;;;;;66.83;31.87;;;3.40;90.50;;;;;;5004776;28;20952;-63
2022/11/29 00:08:22;;;;;;;62.03;29.13;;;3.40;90.70;;;;;;5000134;28;20438;-63
2022/11/29 00:10:48;;;;;;;66.13;30.50;;;3.40;90.80;;;;;;4992002;28;20449;-63
2022/11/29 00:13:14;;;;;;;62.67;29.27;;;3.40;90.70;;;;;;4999695;28;20419;-63
2022/11/29 00:15:40;;;;;;;73.33;32.07;;;3.40;90.90;;;;;;5010623;28;20711;-63
2022/11/29 00:18:06;;;;;;;67.17;30.47;;;3.40;90.80;;;;;;5011182;28;20219;-63
2022/11/29 00:20:33;;;;;;;64.40;29.20;;;3.40;90.90;;;;;;4997114;28;20435;-63
2022/11/29 00:22:59;;;;;;;60.07;28.37;;;3.40;90.80;;;;;;5032696;28;20430;-63
2022/11/29 00:25:25;;;;;;;60.40;28.07;;;3.40;90.80;;;;;;5031001;28;20521;-63
2022/11/29 00:27:51;;;;;;;64.00;30.00;;;3.40;91.00;;;;;;5017995;28;20194;-63
2022/11/29 00:30:18;;;;;;;59.57;26.90;;;3.40;91.00;;;;;;5040673;28;20442;-63
2022/11/29 00:32:44;;;;;;;63.73;29.63;;;3.40;91.10;;;;;;5002654;28;20236;-63
2022/11/29 00:35:09;;;;;;;66.80;28.37;;;3.40;91.00;;;;;;5000343;28;20520;-63
2022/11/29 00:37:35;;;;;;;60.50;29.27;;;3.40;91.20;;;;;;5015000;28;20264;-63
2022/11/29 00:40:01;;;;;;;68.97;30.90;;;3.30;90.90;;;;;;4996366;28;20321;-63
2022/11/29 00:42:27;;;;;;;65.83;30.50;;;3.40;91.00;;;;;;4988527;28;20188;-63
2022/11/29 00:44:52;;;;;;;66.47;29.10;;;3.40;91.00;;;;;;4998686;28;20445;-63
2022/11/29 00:47:18;;;;;;;61.73;28.80;;;3.30;91.10;;;;;;4998874;28;20206;-63
2022/11/29 00:49:44;;;;;;;60.30;29.30;;;3.40;91.20;;;;;;4999787;28;20202;-63
2022/11/29 00:52:09;;;;;;;64.07;29.27;;;3.40;91.30;;;;;;4997018;28;20212;-63
2022/11/29 00:54:35;;;;;;;65.07;28.80;;;3.40;91.20;;;;;;4993124;28;20290;-63
2022/11/29 00:57:00;;;;;;;64.37;28.70;;;3.30;91.30;;;;;;5013311;28;20318;-63
2022/11/29 00:59:26;;;;;;;63.60;27.97;;;3.40;91.30;;;;;;4989490;28;20223;-63
2022/11/29 01:01:52;;;;;;;58.50;29.17;;;3.30;91.20;;;;;;5014909;28;20187;-63
2022/11/29 01:04:18;;;;;;;63.50;29.03;;;3.30;91.20;;;;;;4988650;28;20199;-64
2022/11/29 01:06:43;;;;;;;64.40;28.83;;;3.30;91.10;;;;;;4996518;28;20198;-63
2022/11/29 01:09:09;;;;;;;58.87;27.80;;;3.30;91.30;;;;;;5025083;28;20214;-63
2022/11/29 01:11:35;;;;;;;63.47;30.73;;;3.40;91.40;;;;;;4994993;28;20253;-63
2022/11/29 01:14:01;;;;;;;55.13;25.90;;;3.40;91.50;;;;;;4979406;28;20194;-63
2022/11/29 01:16:30;;;;;;;63.47;26.93;;;3.40;91.50;;;;;;4995008;28;20207;-63
2022/11/29 01:18:56;;;;;;;65.37;28.70;;;3.40;91.60;;;;;;5002021;28;20924;-63
2022/11/29 01:21:23;;;;;;;67.30;29.47;;;3.40;91.50;;;;;;4999155;28;20427;-64
2022/11/29 01:23:50;;;;;;;67.83;30.00;;;3.40;91.60;;;;;;5029914;28;20190;-64
2022/11/29 01:26:25;;;;;;;52.67;24.93;;;3.40;91.60;;;;;;4998472;28;20808;-64
2022/11/29 01:28:53;;;;;;;65.73;30.20;;;3.40;91.60;;;;;;5016323;28;20413;-63
2022/11/29 01:31:25;;;;;;;63.93;28.30;;;3.40;91.60;;;;;;5019288;28;20418;-63
2022/11/29 01:33:55;;;;;;;70.17;29.43;;;3.40;91.60;;;;;;5019363;28;20441;-63
2022/11/29 01:36:21;;;;;;;62.40;29.27;;;3.30;91.40;;;;;;5019230;28;20465;-63
2022/11/29 01:38:47;;;;;;;65.27;30.33;;;3.30;91.10;;;;;;5017618;28;20456;-63
2022/11/29 01:41:18;;;;;;;70.57;30.33;;;3.30;91.20;;;;;;4998894;28;20199;-63
2022/11/29 01:43:56;;;;;;;64.20;29.87;;;3.30;91.40;;;;;;5027531;28;20183;-64
2022/11/29 01:46:22;;;;;;;72.87;30.27;;;3.30;91.10;;;;;;5018419;28;20425;-64
2022/11/29 01:48:48;;;;;;;73.80;31.87;;;3.30;91.30;;;;;;5002665;28;20445;-64
2022/11/29 01:51:14;;;;;;;83.03;33.17;;;3.30;91.30;;;;;;5018710;28;20198;-63
2022/11/29 01:53:40;;;;;;;72.00;30.30;;;3.30;90.90;;;;;;5020844;28;20445;-63
2022/11/29 01:56:06;;;;;;;70.67;30.90;;;3.30;91.20;;;;;;4985500;28;20196;-63
2022/11/29 01:58:33;;;;;;;77.60;31.03;;;3.30;91.30;;;;;;5018557;28;20293;-63
2022/11/29 02:01:00;;;;;;;70.43;28.87;;;3.30;91.20;;;;;;5016718;28;20441;-63
2022/11/29 02:03:26;;;;;;;76.60;32.60;;;3.30;91.30;;;;;;5036198;28;20463;-63
2022/11/29 02:05:53;;;;;;;71.57;30.70;;;3.30;91.20;;;;;;5007325;28;20466;-63
2022/11/29 02:08:35;;;;;;;80.37;30.77;;;3.30;91.20;;;;;;5018604;28;20244;-63
2022/11/29 02:11:25;;;;;;;78.83;31.57;;;3.30;91.10;;;;;;5017536;28;21041;-63
2022/11/29 02:14:13;;;;;;;74.80;29.17;;;3.20;90.90;;;;;;5006837;28;20437;-63
2022/11/29 02:16:57;;;;;;;64.40;27.27;;;3.20;91.20;;;;;;5035290;28;20465;-63
2022/11/29 02:19:26;;;;;;;78.10;31.83;;;3.20;91.30;;;;;;5016807;28;20438;-63
2022/11/29 02:21:59;;;;;;;79.77;31.93;;;3.30;91.40;;;;;;5006760;28;20448;-63
2022/11/29 02:24:49;;;;;;;78.17;32.67;;;3.30;91.50;;;;;;5017100;28;20441;-63
2022/11/29 02:27:51;;;;;;;69.63;28.30;;;3.30;91.50;;;;;;5014789;28;20430;-63
2022/11/29 02:31:05;;;;;;;69.70;31.10;;;3.30;91.60;;;;;;5006507;28;20437;-63
2022/11/29 02:33:49;;;;;;;73.70;30.57;;;3.30;91.40;;;;;;4963364;28;20445;-63
2022/11/29 02:36:24;;;;;;;70.87;26.03;;;3.20;91.40;;;;;;5009852;28;20446;-63
2022/11/29 02:39:01;;;;;;;76.10;30.23;;;3.20;91.50;;;;;;5017949;28;20483;-63
2022/11/29 02:41:50;;;;;;;73.07;28.87;;;3.30;91.60;;;;;;5017577;28;20439;-63
2022/11/29 02:44:31;;;;;;;75.53;31.47;;;3.30;91.70;;;;;;5017146;28;20422;-63
2022/11/29 02:47:19;;;;;;;73.27;29.00;;;3.20;91.70;;;;;;5010933;28;20524;-63
2022/11/29 02:50:09;;;;;;;68.13;28.07;;;3.20;91.60;;;;;;5017334;28;20825;-63
2022/11/29 02:53:03;;;;;;;72.80;27.17;;;3.30;91.80;;;;;;5004671;28;20452;-63
2022/11/29 02:55:58;;;;;;;78.30;33.90;;;3.30;91.90;;;;;;5017672;28;20499;-63
2022/11/29 02:59:00;;;;;;;79.47;30.60;;;3.30;91.90;;;;;;5007392;28;20468;-63
2022/11/29 03:01:50;;;;;;;75.90;29.40;;;3.30;91.80;;;;;;5023682;28;20453;-63
2022/11/29 03:04:36;;;;;;;73.37;30.83;;;3.30;91.70;;;;;;5030826;28;20427;-63
2022/11/29 03:07:14;;;;;;;75.77;30.33;;;3.30;91.90;;;;;;5013183;28;20543;-63
2022/11/29 03:09:57;;;;;;;73.23;29.20;;;3.30;92.00;;;;;;5007984;28;20476;-63
2022/11/29 03:12:48;;;;;;;69.70;27.57;;;3.30;92.00;;;;;;5015554;28;20530;-63
2022/11/29 03:15:28;;;;;;;78.33;29.33;;;3.30;92.00;;;;;;5017383;28;20567;-63
2022/11/29 03:18:15;;;;;;;70.80;29.73;;;3.20;91.60;;;;;;5010522;28;20817;-63
2022/11/29 03:21:07;;;;;;;73.43;29.07;;;3.20;91.80;;;;;;5014956;28;20441;-63
2022/11/29 03:23:45;;;;;;;66.17;25.77;;;3.20;92.00;;;;;;5034585;28;20911;-63
2022/11/29 03:26:28;;;;;;;68.67;29.60;;;3.30;92.10;;;;;;5009251;28;20436;-63
2022/11/29 03:29:06;;;;;;;64.33;27.87;;;3.30;92.10;;;;;;5010311;28;20432;-63
2022/11/29 03:32:13;;;;;;;62.80;26.73;;;3.30;92.10;;;;;;5027867;28;20422;-63
2022/11/29 03:34:52;;;;;;;65.03;27.63;;;3.30;92.20;;;;;;5001590;28;20434;-63
2022/11/29 03:37:24;;;;;;;77.47;29.03;;;3.30;92.30;;;;;;5013557;28;20870;-63
2022/11/29 03:39:58;;;;;;;80.60;30.03;;;3.30;92.30;;;;;;5032107;28;20477;-63
2022/11/29 03:42:41;;;;;;;80.90;32.50;;;3.30;92.30;;;;;;5005268;28;20431;-63
2022/11/29 03:45:17;;;;;;;76.70;30.20;;;3.30;92.20;;;;;;5004995;28;20451;-63
2022/11/29 03:48:03;;;;;;;78.27;31.13;;;3.30;92.20;;;;;;5004033;28;20441;-63
2022/11/29 03:50:39;;;;;;;74.77;31.30;;;3.30;92.30;;;;;;5006915;28;20487;-63
2022/11/29 03:53:46;;;;;;;72.03;30.70;;;3.30;92.20;;;;;;5005476;28;20528;-63
2022/11/29 03:56:33;;;;;;;81.37;31.90;;;3.30;92.30;;;;;;5020308;28;20441;-63
2022/11/29 03:59:17;;;;;;;80.33;32.83;;;3.30;92.30;;;;;;5029696;28;20419;-63
2022/11/29 04:02:05;;;;;;;80.70;32.57;;;3.30;92.30;;;;;;5015744;28;20532;-63
2022/11/29 04:04:54;;;;;;;79.73;31.27;;;3.30;92.20;;;;;;4999410;28;20508;-63
2022/11/29 04:07:25;;;;;;;71.03;30.23;;;3.30;92.30;;;;;;5012109;28;20477;-63
2022/11/29 04:10:28;;;;;;;77.27;31.57;;;3.30;92.40;;;;;;5012514;28;20452;-63
2022/11/29 04:13:00;;;;;;;77.40;31.50;;;3.20;92.20;;;;;;5023517;28;20520;-64
2022/11/29 04:15:38;;;;;;;84.43;33.63;;;3.30;92.30;;;;;;5015426;28;20518;-64
2022/11/29 04:18:22;;;;;;;80.80;31.53;;;3.20;92.20;;;;;;5002846;28;20472;-64
2022/11/29 04:21:19;;;;;;;86.97;32.27;;;3.30;92.20;;;;;;5030221;28;20563;-63
2022/11/29 04:23:50;;;;;;;83.70;30.57;;;3.20;92.10;;;;;;5009743;28;20529;-63
2022/11/29 04:26:31;;;;;;;75.37;30.33;;;3.20;92.00;;;;;;5027352;28;20936;-64
2022/11/29 04:29:20;;;;;;;76.23;29.33;;;3.20;92.10;;;;;;5015777;28;20448;-64
2022/11/29 04:32:23;;;;;;;72.07;28.27;;;3.20;92.30;;;;;;5008779;28;20438;-64
2022/11/29 04:35:25;;;;;;;69.77;28.07;;;3.30;92.30;;;;;;5028622;28;20429;-64
2022/11/29 04:38:21;;;;;;;76.33;27.47;;;3.30;92.40;;;;;;5004244;28;20478;-64
2022/11/29 04:41:24;;;;;;;75.73;26.87;;;3.30;92.40;;;;;;5015780;28;20481;-64
2022/11/29 04:43:50;;;;;;;59.37;24.63;;;3.30;92.50;;;;;;5009241;28;20426;-64
2022/11/29 04:46:34;;;;;;;59.03;25.83;;;3.30;92.50;;;;;;5031941;28;20422;-64
2022/11/29 04:49:40;;;;;;;71.07;27.03;;;3.30;92.50;;;;;;5006091;28;20531;-64
2022/11/29 04:52:27;;;;;;;81.60;31.40;;;3.30;92.60;;;;;;4971743;28;20435;-64
2022/11/29 04:55:18;;;;;;;82.33;31.60;;;3.30;92.50;;;;;;5025640;28;20421;-64
2022/11/29 04:57:52;;;;;;;84.17;32.23;;;3.20;92.40;;;;;;5019548;28;20461;-64
2022/11/29 05:00:21;;;;;;;71.53;30.60;;;3.30;92.50;;;;;;5036768;28;20472;-64
2022/11/29 05:02:58;;;;;;;77.27;30.77;;;3.30;92.50;;;;;;5019598;28;20433;-64
2022/11/29 05:05:45;;;;;;;62.47;29.57;;;3.30;92.20;;;;;;5010995;28;20440;-64
2022/11/29 05:08:26;;;;;;;72.13;30.97;;;3.10;91.30;;;;;;5012251;28;20922;-64
2022/11/29 05:11:15;;;;;;;69.77;31.03;;;3.00;91.50;;;;;;5015537;28;20450;-64
2022/11/29 05:14:00;;;;;;;76.53;30.63;;;3.10;91.60;;;;;;5032051;28;20432;-64
2022/11/29 05:16:47;;;;;;;79.50;29.60;;;3.00;91.40;;;;;;5000645;28;20489;-66
2022/11/29 05:19:42;;;;;;;76.00;30.37;;;3.00;91.50;;;;;;5019604;28;20866;-64
2022/11/29 05:22:34;;;;;;;68.23;28.40;;;3.10;91.60;;;;;;5011390;28;20430;-64
2022/11/29 05:25:42;;;;;;;68.47;29.73;;;3.20;91.90;;;;;;5009926;28;20441;-64
2022/11/29 05:28:19;;;;;;;62.07;27.13;;;3.30;92.00;;;;;;5012390;28;20437;-64
2022/11/29 05:31:07;;;;;;;65.67;27.13;;;3.30;92.10;;;;;;5005177;28;20520;-65
2022/11/29 05:33:36;;;;;;;61.83;25.27;;;3.30;92.10;;;;;;5014818;28;20446;-65
2022/11/29 05:36:20;;;;;;;67.20;28.37;;;3.30;92.20;;;;;;5035654;28;20423;-65
2022/11/29 05:38:54;;;;;;;55.87;26.27;;;3.30;92.00;;;;;;5015528;28;20444;-64
2022/11/29 05:41:37;;;;;;;62.20;27.60;;;3.40;91.90;;;;;;5017030;28;20480;-64
2022/11/29 05:44:35;;;;;;;64.53;26.63;;;3.30;91.20;;;;;;4999830;28;20419;-64
2022/11/29 05:47:03;;;;;;;67.93;28.43;;;3.30;91.40;;;;;;5017055;28;20465;-64
2022/11/29 05:49:59;;;;;;;64.17;25.87;;;3.30;91.20;;;;;;5031576;28;20456;-65
2022/11/29 05:52:40;;;;;;;68.40;28.90;;;3.30;91.50;;;;;;5032903;28;20425;-65
2022/11/29 05:55:37;;;;;;;67.63;29.20;;;3.40;91.60;;;;;;5034186;28;20768;-65
2022/11/29 05:58:07;;;;;;;67.90;29.07;;;3.40;91.70;;;;;;4989925;28;20485;-65
2022/11/29 06:00:52;;;;;;;69.03;27.17;;;3.40;91.70;;;;;;5012039;28;20454;-64
2022/11/29 06:03:43;;;;;;;67.00;26.63;;;3.40;91.70;;;;;;5011683;28;20803;-64
2022/11/29 06:06:21;;;;;;;76.60;30.20;;;3.50;91.80;;;;;;5033095;28;20452;-65
2022/11/29 06:09:00;;;;;;;70.50;29.10;;;3.40;91.50;;;;;;5015193;28;20426;-64
2022/11/29 06:11:29;;;;;;;73.63;29.47;;;3.50;91.60;;;;;;5007271;28;20454;-64
2022/11/29 06:14:30;;;;;;;80.77;32.87;;;3.50;91.60;;;;;;5004830;28;20561;-65
2022/11/29 06:17:14;;;;;;;90.97;32.10;;;3.40;91.40;;;;;;5010502;28;20473;-64
2022/11/29 06:19:55;;;;;;;80.63;30.10;;;3.50;91.60;;;;;;5001584;28;20879;-65
2022/11/29 06:23:15;;;;;;;80.17;33.07;;;3.50;91.70;;;;;;5015086;28;20434;-65
2022/11/29 06:26:15;;;;;;;80.43;31.47;;;3.40;91.40;;;;;;5019275;28;20429;-64
2022/11/29 06:29:06;;;;;;;85.50;34.03;;;3.50;91.70;;;;;;5003246;28;20442;-64
2022/11/29 06:31:37;;;;;;;69.47;29.00;;;3.50;91.70;;;;;;5015464;28;20445;-64
2022/11/29 06:34:08;;;;;;;86.97;32.73;;;3.50;91.70;;;;;;5034838;28;20504;-64
2022/11/29 06:36:55;;;;;;;87.77;30.23;;;3.50;91.80;;;;;;5009114;28;20518;-64
2022/11/29 06:39:22;;;;;;;70.00;27.33;;;3.50;91.90;;;;;;5016245;28;20482;-64
2022/11/29 06:41:47;;;;;;;77.70;30.10;;;3.50;92.00;;;;;;5013793;28;20500;-65
2022/11/29 06:44:13;;;;;;;79.73;29.97;;;3.60;92.00;;;;;;4986829;28;20422;-64
2022/11/29 06:47:05;;;;;;;82.23;29.83;;;3.60;92.00;;;;;;5011942;28;20195;-64
2022/11/29 06:49:52;;;;;;;68.77;28.47;;;3.60;92.00;;;;;;5018850;28;20274;-65
2022/11/29 06:52:18;;;;;;;66.90;27.77;;;3.60;92.10;;;;;;5008888;28;20494;-65
2022/11/29 06:55:01;;;;;;;82.50;27.63;;;3.60;92.10;;;;;;5017558;28;20437;-65
2022/11/29 06:57:42;;;;;;;82.50;33.03;;;3.60;92.10;;;;;;5016217;28;20216;-64
2022/11/29 07:00:16;;;;;;;73.63;27.97;;;3.60;92.20;;;;;;5015583;28;20428;-65
2022/11/29 07:02:42;;;;;;;81.47;32.40;;;3.60;92.20;;;;;;5013504;28;20519;-64
2022/11/29 07:05:19;;;;;;;71.13;28.90;;;3.60;92.30;;;;;;5015787;28;20436;-64
2022/11/29 07:07:45;;;;;;;74.53;29.43;;;3.60;92.30;;;;;;5014392;28;20199;-64
2022/11/29 07:10:17;;;;;;;67.53;26.30;;;3.70;92.30;;;;;;5016121;28;20492;-64
2022/11/29 07:12:49;;;;;;;71.27;28.20;;;3.70;92.30;;;;;;5014766;28;20877;-65
2022/11/29 07:15:17;;;;;;;74.27;32.80;;;3.70;92.40;;;;;;4996829;28;21061;-65
2022/11/29 07:18:04;;;;;;;71.50;29.53;;;3.70;92.40;;;;;;5009690;28;20497;-65
2022/11/29 07:20:33;;;;;;;75.90;30.83;;;3.70;92.40;;;;;;5009367;28;20430;-64
2022/11/29 07:23:31;;;;;;;80.27;29.93;;;3.70;92.40;;;;;;5031738;28;20512;-65
2022/11/29 07:26:07;;;;;;;71.67;28.77;;;3.70;92.40;;;;;;5011636;28;21055;-64
2022/11/29 07:28:51;;;;;;;67.70;27.50;;;3.80;92.50;;;;;;5014457;28;20435;-65
2022/11/29 07:31:29;;;;;;;64.70;28.07;;;3.80;92.50;;;;;;5000851;28;20527;-65
2022/11/29 07:34:14;;;;;;;62.97;26.13;;;3.80;92.50;;;;;;5007732;28;20446;-64
2022/11/29 07:37:12;;;;;;;59.50;26.70;;;3.80;92.40;;;;;;5004106;28;20468;-64
2022/11/29 07:39:48;;;;;;;58.60;25.93;;;3.80;92.40;;;;;;5004149;28;20845;-64
2022/11/29 07:42:34;;;;;;;56.43;24.13;;;3.80;92.50;;;;;;5013117;28;20433;-65
2022/11/29 07:45:09;;;;;;;55.50;26.27;;;3.80;92.40;;;;;;5011427;28;20477;-64
2022/11/29 07:47:35;;;;;;;62.30;26.50;;;3.90;92.50;;;;;;5001629;28;20426;-65
2022/11/29 07:50:00;;;;;;;57.77;26.33;;;3.90;92.50;;;;;;4978135;28;20451;-64
2022/11/29 07:52:27;;;;;;;60.70;27.70;;;3.90;92.40;;;;;;4992577;28;20199;-65
2022/11/29 07:54:53;;;;;;;58.13;24.27;;;3.90;92.40;;;;;;4978497;28;20196;-65
2022/11/29 07:57:18;;;;;;;57.50;25.20;;;3.90;92.50;;;;;;4974457;28;20473;-64
2022/11/29 07:59:44;;;;;;;54.27;24.87;;;4.00;92.50;;;;;;5014291;28;20719;-64
2022/11/29 08:02:10;;;;;;;56.97;24.67;;;4.00;92.50;;;;;;4982466;28;20194;-64
2022/11/29 08:04:45;;;;;;;56.07;26.03;;;3.90;91.80;;;;;;5012346;28;20200;-65
2022/11/29 08:07:11;;;;;;;45.40;23.43;;;4.00;92.00;;;;;;5003864;28;20433;-65
2022/11/29 08:09:37;;;;;;;54.50;23.83;;;4.00;92.20;;;;;;5013747;28;20441;-64
2022/11/29 08:12:03;;;;;;;59.70;26.33;;;4.00;92.30;;;;;;4995189;28;20445;-65
2022/11/29 08:14:32;;;;;;;54.63;24.90;;;4.10;92.10;;;;;;5023920;28;20184;-65
2022/11/29 08:16:57;;;;;;;57.97;24.50;;;4.10;92.20;;;;;;4987225;28;20557;-64
2022/11/29 08:19:23;;;;;;;55.87;25.07;;;4.10;92.30;;;;;;4996077;28;20448;-65
2022/11/29 08:21:50;;;;;;;56.40;25.27;;;4.10;91.70;;;;;;5003549;28;20681;-64
2022/11/29 08:24:15;;;;;;;62.40;26.50;;;4.10;91.80;;;;;;4996946;28;20196;-65
2022/11/29 08:26:41;;;;;;;58.27;26.47;;;4.00;90.80;;;;;;4993558;28;20424;-65
2022/11/29 08:29:07;;;;;;;60.73;25.77;;;4.10;91.40;;;;;;4998429;28;20182;-65
2022/11/29 08:31:32;;;;;;;55.30;26.63;;;4.20;91.70;;;;;;4984346;28;20645;-65
2022/11/29 08:33:58;;;;;;;50.20;25.20;;;4.20;91.30;;;;;;4978981;28;20192;-65
2022/11/29 08:36:24;;;;;;;54.27;25.53;;;4.20;91.50;;;;;;4976827;28;20186;-64
2022/11/29 08:38:50;;;;;;;48.30;24.17;;;4.30;91.60;;;;;;5014696;28;20233;-64
2022/11/29 08:41:16;;;;;;;50.73;26.17;;;4.20;90.70;;;;;;5013869;28;20191;-65
2022/11/29 08:43:42;;;;;;;50.40;24.63;;;4.30;90.50;;;;;;4994840;28;20227;-65
2022/11/29 08:46:08;;;;;;;58.50;24.27;;;4.30;91.10;;;;;;5034122;28;20455;-65
2022/11/29 08:48:35;;;;;;;46.80;25.30;;;4.20;88.90;;;;;;5010185;28;20426;-64
2022/11/29 08:51:03;;;;;;;47.33;23.70;;;4.30;89.90;;;;;;5013975;28;20437;-65
2022/11/29 08:53:41;;;;;;;46.43;23.07;;;4.30;90.50;;;;;;5015050;28;20422;-64
2022/11/29 08:56:08;;;;;;;40.43;21.60;;;4.40;90.80;;;;;;4998778;28;20461;-65
2022/11/29 08:58:34;;;;;;;43.77;22.47;;;4.40;90.10;;;;;;5015043;28;20495;-65
2022/11/29 09:01:00;;;;;;;39.63;21.47;;;4.50;89.90;;;;;;5013581;28;20429;-65
2022/11/29 09:06:12;;;;;;;51.53;23.33;;;4.50;89.20;;;;;;5001374;28;20190;-65
2022/11/29 09:08:39;;;;;;;42.43;22.33;;;4.50;89.00;;;;;;5012155;28;20535;-65
2022/11/29 09:11:20;;;;;;;44.33;22.00;;;4.50;88.70;;;;;;5013567;28;20414;-65
2022/11/29 09:13:49;;;;;;;39.23;20.40;;;4.60;89.30;;;;;;5013112;28;20438;-65
2022/11/29 09:16:17;;;;;;;46.97;23.27;;;4.70;89.80;;;;;;4997808;28;20852;-64
2022/11/29 09:18:44;;;;;;;40.90;22.20;;;4.70;89.70;;;;;;5011303;28;20551;-65
2022/11/29 09:21:13;;;;;;;44.13;21.97;;;4.70;89.70;;;;;;5006245;28;20426;-65
2022/11/29 09:23:40;;;;;;;41.33;21.93;;;4.70;89.30;;;;;;5029881;28;20764;-65
2022/11/29 09:26:08;;;;;;;42.53;23.13;;;4.80;89.40;;;;;;5004378;28;20429;-64
2022/11/29 09:28:34;;;;;;;48.53;24.00;;;4.80;89.90;;;;;;4992560;28;20956;-64
2022/11/29 09:31:08;;;;;;;44.33;22.53;;;4.80;88.70;;;;;;5023049;28;21007;-65
2022/11/29 09:33:34;;;;;;;39.63;22.20;;;4.80;88.10;;;;;;5008559;28;20824;-64
2022/11/29 09:36:00;;;;;;;48.30;24.40;;;4.70;87.00;;;;;;5014041;28;20538;-65
2022/11/29 09:38:26;;;;;;;43.27;22.57;;;4.70;87.30;;;;;;4997842;28;20515;-65
2022/11/29 09:40:54;;;;;;;41.97;22.07;;;4.80;87.90;;;;;;5007009;28;20496;-64
2022/11/29 09:43:59;;;;;;;41.47;23.37;;;4.80;87.50;;;;;;5015765;28;20171;-65
2022/11/29 09:47:00;;;;;;;47.57;24.27;;;4.70;85.30;;;;;;4988326;28;20437;-64
2022/11/29 09:49:26;;;;;;;46.17;22.77;;;4.70;86.10;;;;;;5032087;28;20429;-64
2022/11/29 09:52:01;;;;;;;42.57;22.50;;;4.70;86.70;;;;;;5016557;28;20468;-64
2022/11/29 09:54:48;;;;;;;41.00;22.40;;;4.70;86.20;;;;;;5028587;28;20182;-64
2022/11/29 09:57:16;;;;;;;41.90;21.53;;;4.50;84.00;;;;;;5014712;28;20469;-64
2022/11/29 09:59:48;;;;;;;39.77;21.73;;;4.60;85.80;;;;;;5016611;28;20425;-65
2022/11/29 10:02:29;;;;;;;42.60;21.87;;;4.70;86.30;;;;;;5012180;28;20430;-64
2022/11/29 10:05:05;;;;;;;39.97;21.37;;;4.80;86.80;;;;;;5005610;28;20430;-65
2022/11/29 10:07:42;;;;;;;42.80;21.70;;;4.80;87.50;;;;;;5031623;28;20459;-64
2022/11/29 10:10:19;;;;;;;38.97;21.70;;;4.90;87.80;;;;;;5009077;28;20438;-64
2022/11/29 10:12:52;;;;;;;40.17;21.93;;;4.90;86.40;;;;;;5015259;28;20445;-64
2022/11/29 10:15:30;;;;;;;36.93;21.07;;;4.90;86.80;;;;;;5033874;28;20421;-64
2022/11/29 10:18:10;;;;;;;39.10;21.63;;;4.90;85.80;;;;;;5013898;28;20461;-64
2022/11/29 10:20:42;;;;;;;38.03;20.17;;;5.00;87.10;;;;;;5014387;28;20441;-64
2022/11/29 10:23:13;;;;;;;40.37;21.73;;;5.00;86.70;;;;;;5025944;28;20425;-64
2022/11/29 10:25:48;;;;;;;40.80;21.60;;;5.00;86.30;;;;;;5014024;28;20555;-64
2022/11/29 10:28:32;;;;;;;43.97;23.60;;;5.10;86.90;;;;;;5027545;28;20421;-64
2022/11/29 10:31:25;;;;;;;46.47;22.53;;;5.10;86.60;;;;;;5032651;28;20430;-64
2022/11/29 10:33:53;;;;;;;47.50;24.10;;;5.10;86.40;;;;;;5015085;28;20535;-65
2022/11/29 10:36:43;;;;;;;45.27;25.60;;;5.10;85.20;;;;;;5032653;28;20991;-65
2022/11/29 10:39:43;;;;;;;50.13;26.13;;;5.10;84.50;;;;;;5014801;28;20502;-65
2022/11/29 10:45:27;;;;;;;48.70;25.20;;;4.90;84.00;;;;;;5032271;28;20409;-64
2022/11/29 10:48:17;;;;;;;55.77;27.10;;;4.90;85.00;;;;;;5031768;28;20946;-65
2022/11/29 10:50:47;;;;;;;46.47;24.77;;;4.80;85.00;;;;;;5014335;28;20525;-65
2022/11/29 10:53:29;;;;;;;49.13;25.53;;;4.90;85.80;;;;;;5005310;28;20430;-64
2022/11/29 10:56:05;;;;;;;47.00;24.47;;;5.00;86.00;;;;;;5014044;28;20433;-64
2022/11/29 10:58:31;;;;;;;39.17;21.13;;;5.00;85.80;;;;;;5015415;28;20560;-64
2022/11/29 11:01:06;;;;;;;42.03;24.37;;;4.90;85.90;;;;;;4996021;28;20510;-65
2022/11/29 11:03:40;;;;;;;57.63;27.13;;;4.80;84.10;;;;;;5011616;28;20233;-65
2022/11/29 11:06:12;;;;;;;53.43;26.57;;;4.80;83.70;;;;;;5022969;28;20417;-64
2022/11/29 11:08:42;;;;;;;53.70;26.70;;;4.70;84.40;;;;;;5014693;28;20433;-64
2022/11/29 11:11:09;;;;;;;52.00;27.13;;;4.80;84.90;;;;;;5014371;28;20517;-64
2022/11/29 11:13:36;;;;;;;50.67;25.20;;;4.80;84.90;;;;;;5034037;28;20425;-64
2022/11/29 11:16:19;;;;;;;52.67;25.27;;;4.80;85.20;;;;;;5031372;28;20525;-65
2022/11/29 11:18:46;;;;;;;44.37;24.40;;;4.80;85.60;;;;;;5027617;28;20506;-65
2022/11/29 11:21:15;;;;;;;48.77;24.50;;;4.90;85.70;;;;;;5014270;28;20444;-64
2022/11/29 11:23:54;;;;;;;44.43;24.23;;;4.80;85.90;;;;;;5031129;28;20537;-65
2022/11/29 11:26:21;;;;;;;44.20;24.60;;;4.90;85.60;;;;;;5020158;28;20448;-64
2022/11/29 11:28:59;;;;;;;38.17;19.87;;;4.90;85.80;;;;;;5015248;28;20433;-65
2022/11/29 11:31:32;;;;;;;41.03;20.63;;;5.00;86.00;;;;;;5017821;28;20483;-64
2022/11/29 11:34:24;;;;;;;37.10;19.27;;;5.10;84.80;;;;;;5016827;28;20491;-64
2022/11/29 11:36:49;;;;;;;46.10;22.13;;;5.10;85.30;;;;;;5005851;28;20438;-65
2022/11/29 11:39:20;;;;;;;39.03;22.23;;;5.20;85.10;;;;;;5015714;28;20487;-64
2022/11/29 11:44:45;;;;;;;45.87;22.80;;;5.20;84.50;;;;;;5031646;28;20446;-65
2022/11/29 11:47:19;;;;;;;36.47;21.00;;;5.20;84.60;;;;;;5035034;28;20432;-65
2022/11/29 11:50:02;;;;;;;39.43;21.77;;;5.30;84.50;;;;;;5021305;28;20442;-65
2022/11/29 11:52:29;;;;;;;48.20;23.43;;;5.20;84.40;;;;;;5011647;28;20537;-65
2022/11/29 11:55:01;;;;;;;49.27;22.13;;;5.30;84.10;;;;;;5015295;28;20429;-65
2022/11/29 11:57:28;;;;;;;39.53;21.00;;;5.30;84.40;;;;;;5032375;28;20564;-65
2022/11/29 11:59:56;;;;;;;40.97;21.53;;;5.30;84.30;;;;;;5022478;28;20418;-65
2022/11/29 12:02:28;;;;;;;34.17;20.77;;;5.20;80.60;;;;;;5028683;28;20441;-65
2022/11/29 12:04:58;;;;;;;35.60;19.60;;;5.30;82.10;;;;;;5016116;28;20516;-64
2022/11/29 12:07:39;;;;;;;32.97;17.43;;;5.30;81.20;;;;;;5012610;28;20445;-64
2022/11/29 12:10:14;;;;;;;37.80;19.20;;;5.30;81.70;;;;;;5016170;28;20527;-64
2022/11/29 12:12:41;;;;;;;34.67;18.70;;;5.30;81.20;;;;;;5014837;28;20789;-64
2022/11/29 12:15:18;;;;;;;36.00;19.57;;;5.30;80.60;;;;;;5015797;28;20444;-64
2022/11/29 12:18:11;;;;;;;36.63;20.00;;;5.30;78.50;;;;;;5012266;28;20569;-64
2022/11/29 12:21:01;;;;;;;36.73;18.50;;;5.30;80.20;;;;;;5011387;28;20523;-64
2022/11/29 12:23:43;;;;;;;35.67;19.60;;;5.20;80.20;;;;;;5016662;28;20436;-64
2022/11/29 12:26:35;;;;;;;39.57;20.50;;;5.30;80.60;;;;;;4997662;28;20513;-64
2022/11/29 12:29:01;;;;;;;33.13;18.57;;;5.30;80.80;;;;;;5016181;28;20532;-64
2022/11/29 12:31:42;;;;;;;35.57;18.30;;;5.30;80.80;;;;;;4999474;28;20534;-64
2022/11/29 12:34:29;;;;;;;33.43;19.93;;;5.40;81.00;;;;;;5016061;28;20194;-64
2022/11/29 12:37:16;;;;;;;33.63;18.70;;;5.30;80.10;;;;;;5013769;28;20567;-64
2022/11/29 12:39:55;;;;;;;35.03;19.80;;;5.30;80.40;;;;;;5032415;28;20523;-64
2022/11/29 12:42:39;;;;;;;36.77;19.37;;;5.30;80.50;;;;;;5012859;28;20445;-64
2022/11/29 12:45:34;;;;;;;34.00;19.77;;;5.20;80.20;;;;;;5001595;28;20460;-64
2022/11/29 12:48:09;;;;;;;41.70;22.43;;;5.20;81.10;;;;;;4934366;28;20437;-64
2022/11/29 12:50:43;;;;;;;36.27;20.07;;;5.20;80.80;;;;;;5008845;28;20449;-63
2022/11/29 12:53:28;;;;;;;34.90;21.07;;;5.30;81.40;;;;;;5028855;28;20982;-63
2022/11/29 12:56:14;;;;;;;36.23;21.03;;;5.30;81.30;;;;;;5005897;28;20452;-63
2022/11/29 12:59:01;;;;;;;34.37;19.70;;;5.30;81.10;;;;;;5014579;28;21006;-64
2022/11/29 13:01:36;;;;;;;32.37;19.80;;;5.40;80.90;;;;;;5010447;28;20536;-64
2022/11/29 13:04:29;;;;;;;31.27;18.73;;;5.30;79.90;;;;;;5030552;28;20920;-64
2022/11/29 13:07:17;;;;;;;34.40;19.63;;;5.30;80.00;;;;;;5008984;28;20449;-64
2022/11/29 13:09:57;;;;;;;31.60;17.60;;;5.30;79.40;;;;;;5008589;28;20430;-64
2022/11/29 13:12:41;;;;;;;32.27;19.40;;;5.30;80.30;;;;;;5000342;28;20495;-64
2022/11/29 13:15:51;;;;;;;30.63;19.10;;;5.40;80.30;;;;;;5021491;28;20427;-64
2022/11/29 13:18:24;;;;;;;34.40;19.87;;;5.40;79.60;;;;;;4956975;28;20554;-64
2022/11/29 13:21:05;;;;;;;33.10;20.03;;;5.40;79.20;;;;;;5010635;28;20455;-64
2022/11/29 13:24:00;;;;;;;34.20;19.67;;;5.40;79.10;;;;;;5029134;28;20417;-64
2022/11/29 13:26:26;;;;;;;36.47;19.30;;;5.50;79.30;;;;;;4985457;28;20438;-64
2022/11/29 13:28:52;;;;;;;33.60;19.00;;;5.50;78.90;;;;;;5014096;28;20478;-64
2022/11/29 13:31:21;;;;;;;33.57;19.43;;;5.40;78.40;;;;;;5036171;28;20199;-64
2022/11/29 13:34:06;;;;;;;33.23;19.73;;;5.40;78.30;;;;;;5031970;28;20434;-64